createdAt,value
2018-02-27T00:01:01.886Z,0
2018-02-27T00:02:11.570Z,0
2018-02-27T00:03:21.527Z,0
2018-02-27T00:04:31.473Z,0
2018-02-27T00:05:41.419Z,0
2018-02-27T00:06:51.114Z,0
2018-02-27T00:08:00.804Z,0
2018-02-27T00:09:10.751Z,0
2018-02-27T00:10:20.716Z,0
2018-02-27T00:11:30.421Z,0
2018-02-27T00:12:40.363Z,0
2018-02-27T00:13:50.307Z,0
2018-02-27T00:15:00.004Z,0
2018-02-27T00:16:09.742Z,0
2018-02-27T00:17:19.693Z,0
2018-02-27T00:18:29.381Z,0
2018-02-27T00:19:39.335Z,0
2018-02-27T00:20:49.288Z,0
2018-02-27T00:21:58.708Z,0
2018-02-27T00:23:08.390Z,0
2018-02-27T00:24:17.562Z,0
2018-02-27T00:25:27.244Z,0
2018-02-27T00:26:36.927Z,0
2018-02-27T00:27:46.873Z,0
2018-02-27T00:28:56.597Z,0
2018-02-27T00:30:06.540Z,0
2018-02-27T00:31:16.487Z,0
2018-02-27T00:32:25.914Z,0
2018-02-27T00:33:35.603Z,0
2018-02-27T00:34:45.290Z,0
2018-02-27T00:35:55.252Z,0
2018-02-27T00:37:05.215Z,0
2018-02-27T00:38:15.168Z,0
2018-02-27T00:39:24.857Z,0
2018-02-27T00:40:34.577Z,0
2018-02-27T00:41:44.270Z,0
2018-02-27T00:42:54.255Z,0
2018-02-27T00:44:03.677Z,0
2018-02-27T00:45:13.383Z,0
2018-02-27T00:46:23.329Z,0
2018-02-27T00:47:33.271Z,0
2018-02-27T00:48:42.698Z,0
2018-02-27T00:49:52.394Z,0
2018-02-27T00:51:01.828Z,0
2018-02-27T00:52:11.516Z,0
2018-02-27T00:53:21.463Z,0
2018-02-27T00:54:30.899Z,0
2018-02-27T00:55:40.591Z,0
2018-02-27T00:56:50.035Z,0
2018-02-27T00:57:59.981Z,0
2018-02-27T00:59:09.937Z,0
2018-02-27T01:00:19.890Z,0
2018-02-27T01:01:29.839Z,0
2018-02-27T01:02:39.519Z,0
2018-02-27T01:03:49.463Z,0
2018-02-27T01:04:59.415Z,0
2018-02-27T01:06:09.383Z,0
2018-02-27T01:07:19.081Z,0
2018-02-27T01:08:29.048Z,0
2018-02-27T01:09:38.990Z,0
2018-02-27T01:10:48.932Z,0
2018-02-27T01:11:58.364Z,0
2018-02-27T01:13:08.312Z,0
2018-02-27T01:14:17.993Z,0
2018-02-27T01:15:27.935Z,0
2018-02-27T01:16:37.889Z,0
2018-02-27T01:17:47.826Z,0
2018-02-27T01:18:57.784Z,0
2018-02-27T01:20:07.724Z,0
2018-02-27T01:21:17.704Z,0
2018-02-27T01:22:27.650Z,0
2018-02-27T01:23:37.633Z,0
2018-02-27T01:24:47.323Z,0
2018-02-27T01:25:57.376Z,0
2018-02-27T01:27:07.399Z,0
2018-02-27T01:28:17.344Z,0
2018-02-27T01:29:27.300Z,0
2018-02-27T01:30:37.241Z,0
2018-02-27T01:31:47.180Z,0
2018-02-27T01:32:57.133Z,0
2018-02-27T01:34:07.086Z,0
2018-02-27T01:35:17.047Z,0
2018-02-27T01:36:26.994Z,0
2018-02-27T01:37:36.938Z,0
2018-02-27T01:38:46.877Z,0
2018-02-27T01:39:56.574Z,0
2018-02-27T01:41:06.517Z,0
2018-02-27T01:42:16.468Z,0
2018-02-27T01:43:26.412Z,0
2018-02-27T01:44:36.364Z,0
2018-02-27T01:45:46.056Z,0
2018-02-27T01:46:56.004Z,0
2018-02-27T01:48:05.695Z,0
2018-02-27T01:49:15.652Z,0
2018-02-27T01:50:25.342Z,0
2018-02-27T01:51:34.511Z,0
2018-02-27T01:52:44.460Z,0
2018-02-27T01:53:54.155Z,0
2018-02-27T01:55:03.843Z,0
2018-02-27T01:56:13.780Z,0
2018-02-27T01:57:22.686Z,0
2018-02-27T01:58:32.629Z,0
2018-02-27T01:59:42.571Z,0
2018-02-27T02:00:52.522Z,0
2018-02-27T02:02:02.218Z,0
2018-02-27T02:03:11.916Z,0
2018-02-27T02:04:21.612Z,0
2018-02-27T02:05:31.307Z,0
2018-02-27T02:06:40.232Z,0
2018-02-27T02:07:49.912Z,0
2018-02-27T02:08:59.346Z,0
2018-02-27T02:10:09.301Z,0
2018-02-27T02:11:18.990Z,0
2018-02-27T02:12:28.676Z,0
2018-02-27T02:13:38.347Z,0
2018-02-27T02:14:48.307Z,0
2018-02-27T02:15:58.010Z,0
2018-02-27T02:17:07.965Z,0
2018-02-27T02:18:17.409Z,0
2018-02-27T02:19:26.587Z,0
2018-02-27T02:20:36.029Z,0
2018-02-27T02:21:45.718Z,0
2018-02-27T02:22:55.423Z,0
2018-02-27T02:24:04.851Z,0
2018-02-27T02:25:14.549Z,0
2018-02-27T02:26:23.982Z,0
2018-02-27T02:27:33.700Z,0
2018-02-27T02:28:43.392Z,0
2018-02-27T02:29:53.347Z,0
2018-02-27T02:31:03.299Z,0
2018-02-27T02:32:13.006Z,0
2018-02-27T02:33:22.963Z,0
2018-02-27T02:34:32.412Z,0
2018-02-27T02:35:42.101Z,0
2018-02-27T02:36:51.790Z,0
2018-02-27T02:38:01.509Z,0
2018-02-27T02:39:11.455Z,0
2018-02-27T02:40:21.396Z,0
2018-02-27T02:41:30.823Z,0
2018-02-27T02:42:40.508Z,0
2018-02-27T02:43:50.193Z,0
2018-02-27T02:45:00.144Z,0
2018-02-27T02:46:09.572Z,0
2018-02-27T02:47:19.015Z,0
2018-02-27T02:48:28.705Z,0
2018-02-27T02:49:38.134Z,0
2018-02-27T02:50:48.082Z,0
2018-02-27T02:51:57.783Z,0
2018-02-27T02:53:07.732Z,0
2018-02-27T02:54:17.673Z,0
2018-02-27T02:55:27.092Z,0
2018-02-27T02:56:36.778Z,0
2018-02-27T02:57:46.723Z,0
2018-02-27T02:58:56.151Z,0
2018-02-27T03:00:06.107Z,0
2018-02-27T03:01:15.782Z,0
2018-02-27T03:02:25.211Z,0
2018-02-27T03:03:35.149Z,0
2018-02-27T03:04:44.594Z,0
2018-02-27T03:05:54.286Z,0
2018-02-27T03:07:04.236Z,0
2018-02-27T03:08:13.923Z,0
2018-02-27T03:09:23.923Z,0
2018-02-27T03:10:33.612Z,0
2018-02-27T03:11:43.309Z,0
2018-02-27T03:12:52.986Z,0
2018-02-27T03:14:02.669Z,0
2018-02-27T03:15:12.359Z,0
2018-02-27T03:16:22.308Z,0
2018-02-27T03:17:31.484Z,0
2018-02-27T03:18:41.197Z,0
2018-02-27T03:19:50.627Z,0
2018-02-27T03:20:59.795Z,0
2018-02-27T03:22:09.749Z,0
2018-02-27T03:23:19.700Z,0
2018-02-27T03:24:29.662Z,0
2018-02-27T03:25:39.613Z,0
2018-02-27T03:26:49.312Z,0
2018-02-27T03:27:59.011Z,0
2018-02-27T03:29:08.960Z,0
2018-02-27T03:30:18.910Z,0
2018-02-27T03:31:28.874Z,0
2018-02-27T03:32:38.832Z,0
2018-02-27T03:33:48.786Z,0
2018-02-27T03:34:58.473Z,0
2018-02-27T03:36:08.427Z,0
2018-02-27T03:37:18.392Z,0
2018-02-27T03:38:28.340Z,0
2018-02-27T03:39:38.031Z,0
2018-02-27T03:40:47.972Z,0
2018-02-27T03:41:57.671Z,0
2018-02-27T03:43:07.110Z,0
2018-02-27T03:44:16.540Z,0
2018-02-27T03:45:25.970Z,0
2018-02-27T03:46:35.907Z,0
2018-02-27T03:47:45.862Z,0
2018-02-27T03:48:55.575Z,0
2018-02-27T03:50:05.523Z,0
2018-02-27T03:51:15.481Z,0
2018-02-27T03:52:25.184Z,0
2018-02-27T03:53:35.141Z,0
2018-02-27T03:54:44.831Z,0
2018-02-27T03:55:54.518Z,0
2018-02-27T03:57:04.459Z,0
2018-02-27T03:58:14.409Z,0
2018-02-27T03:59:24.364Z,0
2018-02-27T04:00:34.308Z,0
2018-02-27T04:01:43.742Z,0
2018-02-27T04:02:53.423Z,0
2018-02-27T04:04:03.107Z,0
2018-02-27T04:05:12.806Z,0
2018-02-27T04:06:22.230Z,0
2018-02-27T04:07:31.661Z,0
2018-02-27T04:08:41.605Z,0
2018-02-27T04:09:51.551Z,0
2018-02-27T04:11:00.980Z,0
2018-02-27T04:12:10.673Z,0
2018-02-27T04:13:20.351Z,0
2018-02-27T04:14:30.304Z,0
2018-02-27T04:15:39.791Z,0
2018-02-27T04:16:48.965Z,0
2018-02-27T04:17:58.643Z,0
2018-02-27T04:19:08.583Z,0
2018-02-27T04:20:18.285Z,0
2018-02-27T04:21:27.970Z,0
2018-02-27T04:22:37.910Z,0
2018-02-27T04:23:47.620Z,0
2018-02-27T04:24:57.577Z,0
2018-02-27T04:26:07.267Z,0
2018-02-27T04:27:16.958Z,0
2018-02-27T04:28:26.902Z,0
2018-02-27T04:29:36.965Z,0
2018-02-27T04:30:46.650Z,0
2018-02-27T04:31:56.589Z,0
2018-02-27T04:33:06.268Z,0
2018-02-27T04:34:15.962Z,0
2018-02-27T04:35:25.901Z,0
2018-02-27T04:36:35.594Z,0
2018-02-27T04:37:45.277Z,0
2018-02-27T04:38:55.216Z,0
2018-02-27T04:40:04.977Z,0
2018-02-27T04:41:14.925Z,0
2018-02-27T04:42:24.616Z,0
2018-02-27T04:43:34.056Z,0
2018-02-27T04:44:44.004Z,0
2018-02-27T04:45:53.689Z,0
2018-02-27T04:47:03.376Z,0
2018-02-27T04:48:13.067Z,0
2018-02-27T04:49:22.495Z,0
2018-02-27T04:50:32.456Z,0
2018-02-27T04:51:42.145Z,0
2018-02-27T04:52:51.338Z,0
2018-02-27T04:54:01.017Z,0
2018-02-27T04:55:10.696Z,0
2018-02-27T04:56:20.380Z,0
2018-02-27T04:57:30.069Z,0
2018-02-27T04:58:39.759Z,0
2018-02-27T04:59:49.702Z,0
2018-02-27T05:00:59.698Z,0
2018-02-27T05:02:09.666Z,0
2018-02-27T05:03:19.623Z,0
2018-02-27T05:04:29.564Z,0
2018-02-27T05:05:39.517Z,0
2018-02-27T05:06:49.466Z,0
2018-02-27T05:07:59.174Z,0
2018-02-27T05:09:08.599Z,0
2018-02-27T05:10:18.291Z,0
2018-02-27T05:11:27.984Z,0
2018-02-27T05:12:37.706Z,0
2018-02-27T05:13:47.663Z,0
2018-02-27T05:14:57.354Z,0
2018-02-27T05:16:07.051Z,0
2018-02-27T05:17:16.476Z,0
2018-02-27T05:18:26.422Z,0
2018-02-27T05:19:35.922Z,0
2018-02-27T05:20:45.877Z,0
2018-02-27T05:21:55.562Z,0
2018-02-27T05:23:05.265Z,0
2018-02-27T05:24:14.955Z,0
2018-02-27T05:25:24.648Z,0
2018-02-27T05:26:34.593Z,0
2018-02-27T05:27:44.037Z,0
2018-02-27T05:28:53.977Z,0
2018-02-27T05:30:03.921Z,0
2018-02-27T05:31:13.614Z,0
2018-02-27T05:32:23.562Z,0
2018-02-27T05:33:32.986Z,0
2018-02-27T05:34:42.757Z,0
2018-02-27T05:35:52.435Z,0
2018-02-27T05:37:02.118Z,0
2018-02-27T05:38:12.127Z,0
2018-02-27T05:39:22.077Z,0
2018-02-27T05:40:32.029Z,0
2018-02-27T05:41:41.713Z,0
2018-02-27T05:42:51.154Z,0
2018-02-27T05:44:01.108Z,0
2018-02-27T05:45:11.309Z,0
2018-02-27T05:46:21.257Z,0
2018-02-27T05:47:31.204Z,5
2018-02-27T05:48:41.161Z,5
2018-02-27T05:49:51.115Z,5
2018-02-27T05:51:01.078Z,5
2018-02-27T05:52:11.028Z,5
2018-02-27T05:53:20.974Z,10
2018-02-27T05:54:30.932Z,10
2018-02-27T05:55:40.872Z,10
2018-02-27T05:56:50.829Z,15
2018-02-27T05:58:00.523Z,15
2018-02-27T05:59:10.464Z,15
2018-02-27T06:00:20.165Z,20
2018-02-27T06:01:29.865Z,20
2018-02-27T06:02:39.624Z,25
2018-02-27T06:03:49.622Z,25
2018-02-27T06:04:59.394Z,25
2018-02-27T06:06:09.338Z,30
2018-02-27T06:07:19.051Z,30
2018-02-27T06:08:29.022Z,35
2018-02-27T06:09:38.979Z,40
2018-02-27T06:10:48.671Z,40
2018-02-27T06:11:58.621Z,40
2018-02-27T06:13:08.386Z,45
2018-02-27T06:14:18.369Z,45
2018-02-27T06:15:28.304Z,50
2018-02-27T06:16:38.253Z,55
2018-02-27T06:17:48.215Z,55
2018-02-27T06:18:57.654Z,60
2018-02-27T06:20:07.612Z,65
2018-02-27T06:21:17.049Z,65
2018-02-27T06:22:26.739Z,70
2018-02-27T06:23:36.427Z,70
2018-02-27T06:24:46.129Z,70
2018-02-27T06:25:55.827Z,75
2018-02-27T06:27:05.769Z,80
2018-02-27T06:28:15.459Z,80
2018-02-27T06:29:24.893Z,85
2018-02-27T06:30:34.589Z,85
2018-02-27T06:31:44.543Z,90
2018-02-27T06:32:54.223Z,95
2018-02-27T06:34:04.182Z,95
2018-02-27T06:35:14.162Z,100
2018-02-27T06:36:24.128Z,105
2018-02-27T06:37:34.099Z,105
2018-02-27T06:38:44.060Z,110
2018-02-27T06:39:54.021Z,110
2018-02-27T06:41:03.715Z,115
2018-02-27T06:42:13.404Z,120
2018-02-27T06:43:23.101Z,125
2018-02-27T06:44:33.074Z,125
2018-02-27T06:45:42.807Z,130
2018-02-27T06:46:52.757Z,130
2018-02-27T06:48:02.728Z,130
2018-02-27T06:49:12.430Z,130
2018-02-27T06:50:22.601Z,135
2018-02-27T06:51:32.294Z,140
2018-02-27T06:52:42.246Z,145
2018-02-27T06:53:51.935Z,150
2018-02-27T06:55:01.907Z,155
2018-02-27T06:56:11.608Z,160
2018-02-27T06:57:21.310Z,165
2018-02-27T06:58:30.996Z,170
2018-02-27T06:59:40.945Z,175
2018-02-27T07:00:50.650Z,180
2018-02-27T07:02:00.088Z,185
2018-02-27T07:03:10.032Z,190
2018-02-27T07:04:19.680Z,195
2018-02-27T07:05:29.380Z,200
2018-02-27T07:06:38.810Z,205
2018-02-27T07:07:48.770Z,205
2018-02-27T07:08:58.210Z,210
2018-02-27T07:10:07.904Z,215
2018-02-27T07:11:17.587Z,215
2018-02-27T07:12:27.340Z,220
2018-02-27T07:13:37.306Z,220
2018-02-27T07:14:46.735Z,225
2018-02-27T07:15:56.429Z,225
2018-02-27T07:17:05.849Z,225
2018-02-27T07:18:15.540Z,225
2018-02-27T07:19:24.977Z,225
2018-02-27T07:20:34.681Z,230
2018-02-27T07:21:44.137Z,235
2018-02-27T07:22:53.593Z,240
2018-02-27T07:24:03.276Z,245
2018-02-27T07:25:13.217Z,250
2018-02-27T07:26:23.160Z,255
2018-02-27T07:27:32.873Z,260
2018-02-27T07:28:42.806Z,260
2018-02-27T07:29:52.506Z,265
2018-02-27T07:31:02.485Z,270
2018-02-27T07:32:12.190Z,275
2018-02-27T07:33:22.152Z,280
2018-02-27T07:34:31.585Z,285
2018-02-27T07:35:41.550Z,285
2018-02-27T07:36:51.243Z,285
2018-02-27T07:38:01.202Z,285
2018-02-27T07:39:10.875Z,285
2018-02-27T07:40:20.567Z,285
2018-02-27T07:41:30.531Z,295
2018-02-27T07:42:40.497Z,285
2018-02-27T07:43:50.194Z,280
2018-02-27T07:44:59.885Z,280
2018-02-27T07:46:09.596Z,280
2018-02-27T07:47:19.753Z,275
2018-02-27T07:48:29.842Z,275
2018-02-27T07:49:39.818Z,270
2018-02-27T07:50:49.771Z,275
2018-02-27T07:51:59.493Z,270
2018-02-27T07:53:08.939Z,265
2018-02-27T07:54:18.881Z,265
2018-02-27T07:55:28.319Z,265
2018-02-27T07:56:38.281Z,270
2018-02-27T07:57:47.979Z,275
2018-02-27T07:58:57.670Z,275
2018-02-27T08:00:07.647Z,275
2018-02-27T08:01:17.649Z,285
2018-02-27T08:02:27.078Z,295
2018-02-27T08:03:37.032Z,300
2018-02-27T08:04:46.715Z,290
2018-02-27T08:05:56.158Z,290
2018-02-27T08:07:05.342Z,295
2018-02-27T08:08:15.034Z,290
2018-02-27T08:09:24.993Z,295
2018-02-27T08:10:34.982Z,295
2018-02-27T08:11:44.942Z,290
2018-02-27T08:12:54.905Z,295
2018-02-27T08:14:04.608Z,295
2018-02-27T08:15:14.568Z,305
2018-02-27T08:16:24.598Z,320
2018-02-27T08:17:34.058Z,350
2018-02-27T08:18:44.049Z,360
2018-02-27T08:19:54.011Z,410
2018-02-27T08:21:03.448Z,380
2018-02-27T08:22:13.159Z,435
2018-02-27T08:23:22.343Z,390
2018-02-27T08:24:32.287Z,460
2018-02-27T08:25:42.266Z,405
2018-02-27T08:26:51.960Z,405
2018-02-27T08:28:01.435Z,400
2018-02-27T08:29:11.123Z,400
2018-02-27T08:30:20.830Z,405
2018-02-27T08:31:30.540Z,445
2018-02-27T08:32:40.506Z,455
2018-02-27T08:33:50.522Z,490
2018-02-27T08:34:59.706Z,475
2018-02-27T08:36:09.672Z,475
2018-02-27T08:37:19.124Z,465
2018-02-27T08:38:28.826Z,465
2018-02-27T08:39:38.538Z,475
2018-02-27T08:40:48.036Z,480
2018-02-27T08:41:58.300Z,480
2018-02-27T08:43:07.737Z,470
2018-02-27T08:44:17.814Z,465
2018-02-27T08:45:27.626Z,455
2018-02-27T08:46:36.868Z,440
2018-02-27T08:47:46.828Z,430
2018-02-27T08:48:56.804Z,420
2018-02-27T08:50:06.779Z,420
2018-02-27T08:51:16.746Z,420
2018-02-27T08:52:26.722Z,435
2018-02-27T08:53:36.720Z,435
2018-02-27T08:54:46.424Z,425
2018-02-27T08:55:56.146Z,430
2018-02-27T08:57:05.824Z,430
2018-02-27T08:58:15.530Z,435
2018-02-27T08:59:25.230Z,435
2018-02-27T09:00:34.935Z,430
2018-02-27T09:01:44.662Z,435
2018-02-27T09:02:54.118Z,445
2018-02-27T09:04:04.086Z,440
2018-02-27T09:05:14.062Z,460
2018-02-27T09:06:24.030Z,475
2018-02-27T09:07:33.481Z,500
2018-02-27T09:08:43.493Z,555
2018-02-27T09:09:53.215Z,565
2018-02-27T09:11:02.667Z,655
2018-02-27T09:12:12.634Z,650
2018-02-27T09:13:22.362Z,645
2018-02-27T09:14:32.316Z,745
2018-02-27T09:15:42.022Z,825
2018-02-27T09:16:52.025Z,935
2018-02-27T09:18:01.994Z,915
2018-02-27T09:19:11.773Z,955
2018-02-27T09:20:21.210Z,940
2018-02-27T09:21:30.637Z,955
2018-02-27T09:22:40.604Z,970
2018-02-27T09:23:50.269Z,915
2018-02-27T09:25:00.253Z,910
2018-02-27T09:26:09.442Z,890
2018-02-27T09:27:19.429Z,875
2018-02-27T09:28:29.432Z,890
2018-02-27T09:29:39.556Z,955
2018-02-27T09:30:49.572Z,1015
2018-02-27T09:31:59.277Z,1015
2018-02-27T09:33:09.254Z,1100
2018-02-27T09:34:18.976Z,1165
2018-02-27T09:35:28.697Z,1105
2018-02-27T09:36:38.661Z,1160
2018-02-27T09:37:48.111Z,1315
2018-02-27T09:38:57.694Z,1220
2018-02-27T09:40:07.410Z,1335
2018-02-27T09:41:17.169Z,1385
2018-02-27T09:42:27.180Z,1335
2018-02-27T09:43:36.638Z,1425
2018-02-27T09:44:46.616Z,1350
2018-02-27T09:45:56.631Z,1395
2018-02-27T09:47:06.356Z,1315
2018-02-27T09:48:16.363Z,1265
2018-02-27T09:49:26.333Z,1380
2018-02-27T09:50:35.805Z,1340
2018-02-27T09:51:45.533Z,1300
2018-02-27T09:52:55.504Z,1315
2018-02-27T09:54:04.969Z,1275
2018-02-27T09:55:14.957Z,1345
2018-02-27T09:56:24.689Z,1420
2018-02-27T09:57:34.422Z,1350
2018-02-27T09:58:44.255Z,1385
2018-02-27T09:59:53.711Z,1510
2018-02-27T10:01:03.687Z,1495
2018-02-27T10:02:13.676Z,1595
2018-02-27T10:03:23.395Z,1605
2018-02-27T10:04:33.123Z,1715
2018-02-27T10:05:43.131Z,1655
2018-02-27T10:06:52.835Z,1700
2018-02-27T10:08:02.564Z,1720
2018-02-27T10:09:12.040Z,1865
2018-02-27T10:10:22.022Z,1845
2018-02-27T10:11:31.476Z,1820
2018-02-27T10:12:40.942Z,1855
2018-02-27T10:13:50.928Z,1800
2018-02-27T10:15:00.687Z,1860
2018-02-27T10:16:10.665Z,1915
2018-02-27T10:17:20.203Z,1865
2018-02-27T10:18:29.660Z,1895
2018-02-27T10:19:39.121Z,1945
2018-02-27T10:20:48.848Z,1870
2018-02-27T10:21:58.826Z,1835
2018-02-27T10:23:08.556Z,1890
2018-02-27T10:24:18.285Z,1910
2018-02-27T10:25:28.282Z,1900
2018-02-27T10:26:38.304Z,1930
2018-02-27T10:27:48.091Z,1955
2018-02-27T10:28:57.553Z,1790
2018-02-27T10:30:07.299Z,1870
2018-02-27T10:31:17.066Z,1930
2018-02-27T10:32:27.043Z,1955
2018-02-27T10:33:36.776Z,1965
2018-02-27T10:34:46.846Z,2000
2018-02-27T10:35:56.594Z,2005
2018-02-27T10:37:06.320Z,1910
2018-02-27T10:38:16.057Z,1980
2018-02-27T10:39:25.541Z,2050
2018-02-27T10:40:35.285Z,2090
2018-02-27T10:41:45.056Z,2200
2018-02-27T10:42:54.778Z,2055
2018-02-27T10:44:04.771Z,2385
2018-02-27T10:45:14.819Z,1960
2018-02-27T10:46:24.737Z,2175
2018-02-27T10:47:34.487Z,2205
2018-02-27T10:48:44.228Z,2245
2018-02-27T10:49:53.997Z,1800
2018-02-27T10:51:03.710Z,1670
2018-02-27T10:52:13.962Z,2040
2018-02-27T10:53:23.780Z,1835
2018-02-27T10:54:33.801Z,1795
2018-02-27T10:55:43.808Z,2050
2018-02-27T10:56:53.576Z,2010
2018-02-27T10:58:03.078Z,1945
2018-02-27T10:59:12.804Z,2235
2018-02-27T11:00:22.836Z,1690
2018-02-27T11:01:32.830Z,2025
2018-02-27T11:02:42.303Z,1965
2018-02-27T11:03:52.072Z,1960
2018-02-27T11:05:01.782Z,2140
2018-02-27T11:06:11.244Z,2255
2018-02-27T11:07:20.996Z,2030
2018-02-27T11:08:30.432Z,1875
2018-02-27T11:09:40.173Z,1670
2018-02-27T11:10:49.899Z,1740
2018-02-27T11:11:59.100Z,1700
2018-02-27T11:13:08.822Z,2075
2018-02-27T11:14:18.341Z,1910
2018-02-27T11:15:28.096Z,1715
2018-02-27T11:16:37.300Z,1685
2018-02-27T11:17:47.068Z,2035
2018-02-27T11:18:57.097Z,2095
2018-02-27T11:20:06.662Z,2260
2018-02-27T11:21:16.413Z,2230
2018-02-27T11:22:26.619Z,2150
2018-02-27T11:23:36.589Z,2110
2018-02-27T11:24:46.568Z,2130
2018-02-27T11:25:56.344Z,2155
2018-02-27T11:27:06.067Z,2165
2018-02-27T11:28:16.076Z,2180
2018-02-27T11:29:26.092Z,2145
2018-02-27T11:30:35.555Z,2160
2018-02-27T11:31:45.022Z,2215
2018-02-27T11:32:54.774Z,2190
2018-02-27T11:34:04.765Z,2170
2018-02-27T11:35:14.774Z,2235
2018-02-27T11:36:23.999Z,2300
2018-02-27T11:37:33.728Z,2310
2018-02-27T11:38:43.455Z,2310
2018-02-27T11:39:53.183Z,2325
2018-02-27T11:41:03.177Z,2320
2018-02-27T11:42:12.640Z,2260
2018-02-27T11:43:22.102Z,2255
2018-02-27T11:44:32.145Z,2380
2018-02-27T11:45:41.596Z,2470
2018-02-27T11:46:51.348Z,2420
2018-02-27T11:48:00.825Z,2470
2018-02-27T11:49:10.558Z,2510
2018-02-27T11:50:20.545Z,2495
2018-02-27T11:51:30.283Z,2505
2018-02-27T11:52:40.291Z,2420
2018-02-27T11:53:50.023Z,2385
2018-02-27T11:55:00.008Z,2410
2018-02-27T11:56:09.212Z,2420
2018-02-27T11:57:19.211Z,2475
2018-02-27T11:58:28.923Z,2590
2018-02-27T11:59:38.668Z,2620
2018-02-27T12:00:48.679Z,2520
2018-02-27T12:01:58.394Z,2470
2018-02-27T12:03:08.369Z,2495
2018-02-27T12:04:18.079Z,2605
2018-02-27T12:05:27.820Z,2695
2018-02-27T12:06:37.530Z,2720
2018-02-27T12:07:47.509Z,2430
2018-02-27T12:08:57.227Z,1880
2018-02-27T12:10:06.681Z,1960
2018-02-27T12:11:16.398Z,2385
2018-02-27T12:12:26.359Z,2130
2018-02-27T12:13:35.821Z,1815
2018-02-27T12:14:45.551Z,1780
2018-02-27T12:15:55.283Z,1870
2018-02-27T12:17:04.994Z,1770
2018-02-27T12:18:14.722Z,1855
2018-02-27T12:19:24.693Z,1925
2018-02-27T12:20:34.136Z,2195
2018-02-27T12:21:43.871Z,2630
2018-02-27T12:22:53.629Z,2310
2018-02-27T12:24:03.596Z,2060
2018-02-27T12:25:13.047Z,1820
2018-02-27T12:26:22.515Z,1620
2018-02-27T12:27:32.495Z,1765
2018-02-27T12:28:42.221Z,1805
2018-02-27T12:29:52.207Z,1825
2018-02-27T12:31:01.936Z,1770
2018-02-27T12:32:11.392Z,1765
2018-02-27T12:33:21.433Z,2160
2018-02-27T12:34:31.225Z,2420
2018-02-27T12:35:40.961Z,2100
2018-02-27T12:36:50.700Z,1840
2018-02-27T12:38:00.688Z,1725
2018-02-27T12:39:10.771Z,2220
2018-02-27T12:40:20.492Z,2855
2018-02-27T12:41:30.482Z,1385
2018-02-27T12:42:40.478Z,1430
2018-02-27T12:43:50.451Z,1385
2018-02-27T12:45:00.166Z,1320
2018-02-27T12:46:10.142Z,1360
2018-02-27T12:47:20.162Z,1365
2018-02-27T12:48:29.873Z,1350
2018-02-27T12:49:39.866Z,1365
2018-02-27T12:50:49.845Z,1510
2018-02-27T12:51:59.552Z,1585
2018-02-27T12:53:09.004Z,1595
2018-02-27T12:54:18.979Z,1275
2018-02-27T12:55:28.426Z,1235
2018-02-27T12:56:38.389Z,1035
2018-02-27T12:57:48.108Z,930
2018-02-27T12:58:58.070Z,880
2018-02-27T13:00:07.305Z,845
2018-02-27T13:01:16.747Z,845
2018-02-27T13:02:26.704Z,870
2018-02-27T13:03:36.456Z,915
2018-02-27T13:04:46.438Z,915
2018-02-27T13:05:56.429Z,1005
2018-02-27T13:07:06.397Z,1225
2018-02-27T13:08:16.361Z,915
2018-02-27T13:09:26.316Z,810
2018-02-27T13:10:36.298Z,780
2018-02-27T13:11:46.268Z,755
2018-02-27T13:12:56.024Z,730
2018-02-27T13:14:05.241Z,740
2018-02-27T13:15:14.937Z,755
2018-02-27T13:16:24.368Z,785
2018-02-27T13:17:34.072Z,815
2018-02-27T13:18:43.479Z,860
2018-02-27T13:19:53.180Z,860
2018-02-27T13:21:03.130Z,870
2018-02-27T13:22:12.857Z,825
2018-02-27T13:23:22.320Z,780
2018-02-27T13:24:32.027Z,745
2018-02-27T13:25:42.071Z,720
2018-02-27T13:26:52.094Z,695
2018-02-27T13:28:01.801Z,675
2018-02-27T13:29:11.570Z,665
2018-02-27T13:30:21.734Z,660
2018-02-27T13:31:31.723Z,650
2018-02-27T13:32:41.882Z,635
2018-02-27T13:33:51.854Z,610
2018-02-27T13:35:01.588Z,590
2018-02-27T13:36:11.775Z,575
2018-02-27T13:37:21.748Z,560
2018-02-27T13:38:31.730Z,555
2018-02-27T13:39:41.707Z,545
2018-02-27T13:40:51.420Z,540
2018-02-27T13:42:01.473Z,545
2018-02-27T13:43:11.465Z,560
2018-02-27T13:44:21.185Z,580
2018-02-27T13:45:31.160Z,600
2018-02-27T13:46:40.930Z,605
2018-02-27T13:47:50.972Z,605
2018-02-27T13:49:08.810Z,615
2018-02-27T13:50:18.536Z,635
2018-02-27T13:51:28.494Z,655
2018-02-27T13:52:37.950Z,655
2018-02-27T13:53:47.683Z,645
2018-02-27T13:54:57.116Z,635
2018-02-27T13:56:07.204Z,635
2018-02-27T13:57:16.949Z,640
2018-02-27T13:58:26.665Z,660
2018-02-27T13:59:36.619Z,685
2018-02-27T14:00:45.818Z,700
2018-02-27T14:01:55.522Z,685
2018-02-27T14:03:05.020Z,680
2018-02-27T14:04:14.981Z,690
2018-02-27T14:05:24.964Z,680
2018-02-27T14:06:34.965Z,685
2018-02-27T14:07:44.941Z,680
2018-02-27T14:08:55.042Z,675
2018-02-27T14:10:05.062Z,660
2018-02-27T14:11:15.052Z,680
2018-02-27T14:12:25.310Z,715
2018-02-27T14:13:35.275Z,750
2018-02-27T14:14:44.981Z,755
2018-02-27T14:15:54.691Z,725
2018-02-27T14:17:04.449Z,705
2018-02-27T14:18:14.156Z,695
2018-02-27T14:19:24.142Z,685
2018-02-27T14:20:34.126Z,655
2018-02-27T14:21:44.091Z,655
2018-02-27T14:22:53.536Z,710
2018-02-27T14:24:03.548Z,720
2018-02-27T14:25:13.271Z,890
2018-02-27T14:26:23.227Z,915
2018-02-27T14:27:32.952Z,845
2018-02-27T14:28:42.912Z,730
2018-02-27T14:29:52.873Z,670
2018-02-27T14:31:02.838Z,625
2018-02-27T14:32:12.571Z,655
2018-02-27T14:33:21.759Z,735
2018-02-27T14:34:31.490Z,695
2018-02-27T14:35:41.466Z,685
2018-02-27T14:36:51.225Z,580
2018-02-27T14:38:01.186Z,560
2018-02-27T14:39:10.898Z,595
2018-02-27T14:40:20.861Z,570
2018-02-27T14:41:30.836Z,550
2018-02-27T14:42:40.275Z,515
2018-02-27T14:43:50.250Z,505
2018-02-27T14:44:59.691Z,475
2018-02-27T14:46:09.923Z,465
2018-02-27T14:47:19.637Z,445
2018-02-27T14:48:29.071Z,425
2018-02-27T14:49:38.797Z,410
2018-02-27T14:50:48.240Z,425
2018-02-27T14:51:57.425Z,435
2018-02-27T14:53:06.871Z,515
2018-02-27T14:54:16.365Z,485
2018-02-27T14:55:26.320Z,455
2018-02-27T14:56:35.532Z,475
2018-02-27T14:57:45.498Z,475
2018-02-27T14:58:55.505Z,445
2018-02-27T15:00:05.513Z,535
2018-02-27T15:01:15.218Z,465
2018-02-27T15:02:25.185Z,460
2018-02-27T15:03:34.900Z,475
2018-02-27T15:04:44.610Z,525
2018-02-27T15:05:54.616Z,575
2018-02-27T15:07:04.588Z,545
2018-02-27T15:08:14.567Z,495
2018-02-27T15:09:24.599Z,490
2018-02-27T15:10:34.300Z,515
2018-02-27T15:11:44.266Z,500
2018-02-27T15:12:53.966Z,600
2018-02-27T15:14:03.937Z,635
2018-02-27T15:15:13.921Z,545
2018-02-27T15:16:23.931Z,475
2018-02-27T15:17:33.640Z,470
2018-02-27T15:18:43.601Z,500
2018-02-27T15:19:53.552Z,530
2018-02-27T15:21:02.998Z,625
2018-02-27T15:22:12.981Z,825
2018-02-27T15:23:22.429Z,885
2018-02-27T15:24:32.389Z,830
2018-02-27T15:25:42.350Z,805
2018-02-27T15:26:52.312Z,810
2018-02-27T15:28:02.292Z,830
2018-02-27T15:29:12.268Z,800
2018-02-27T15:30:22.234Z,770
2018-02-27T15:31:32.201Z,740
2018-02-27T15:32:42.164Z,715
2018-02-27T15:33:52.220Z,700
2018-02-27T15:35:02.196Z,685
2018-02-27T15:36:12.210Z,640
2018-02-27T15:37:22.199Z,615
2018-02-27T15:38:32.163Z,580
2018-02-27T15:39:42.130Z,545
2018-02-27T15:40:51.318Z,505
2018-02-27T15:42:01.020Z,470
2018-02-27T15:43:10.728Z,415
2018-02-27T15:44:20.174Z,395
2018-02-27T15:45:30.158Z,370
2018-02-27T15:46:40.129Z,330
2018-02-27T15:47:50.093Z,285
2018-02-27T15:48:59.804Z,255
2018-02-27T15:50:09.271Z,235
2018-02-27T15:51:19.032Z,205
2018-02-27T15:52:28.727Z,195
2018-02-27T15:53:38.450Z,180
2018-02-27T15:54:48.420Z,160
2018-02-27T15:55:58.514Z,145
2018-02-27T15:57:08.497Z,135
2018-02-27T15:58:17.685Z,125
2018-02-27T15:59:27.132Z,125
2018-02-27T16:00:36.834Z,120
2018-02-27T16:01:46.802Z,105
2018-02-27T16:02:55.991Z,100
2018-02-27T16:04:05.991Z,100
2018-02-27T16:05:16.089Z,95
2018-02-27T16:06:25.807Z,85
2018-02-27T16:07:35.758Z,80
2018-02-27T16:08:45.730Z,80
2018-02-27T16:09:55.510Z,75
2018-02-27T16:11:05.224Z,70
2018-02-27T16:12:15.207Z,65
2018-02-27T16:13:24.918Z,65
2018-02-27T16:14:34.891Z,60
2018-02-27T16:15:44.341Z,60
2018-02-27T16:16:54.299Z,60
2018-02-27T16:18:04.264Z,55
2018-02-27T16:19:14.229Z,50
2018-02-27T16:20:24.214Z,50